createdAt,value
2022-08-29T00:00:59.474Z,19.33
2022-08-29T00:03:45.367Z,13.73
2022-08-29T00:06:31.835Z,18.30
2022-08-29T00:09:17.769Z,21.70
2022-08-29T00:12:05.534Z,18.08
2022-08-29T00:14:51.501Z,19.25
2022-08-29T00:17:37.367Z,16.13
2022-08-29T00:20:33.937Z,16.63
2022-08-29T00:23:20.988Z,21.55
2022-08-29T00:26:07.444Z,19.45
2022-08-29T00:28:52.968Z,18.50
2022-08-29T00:31:39.244Z,27.77
2022-08-29T00:34:25.348Z,19.60
2022-08-29T00:37:11.345Z,16.30
2022-08-29T00:39:57.526Z,17.92
2022-08-29T00:42:44.295Z,15.32
2022-08-29T00:45:30.487Z,22.38
2022-08-29T00:48:17.759Z,17.55
2022-08-29T00:51:07.855Z,18.92
2022-08-29T00:54:01.390Z,19.48
2022-08-29T00:56:47.454Z,21.10
2022-08-29T00:59:38.882Z,19.25
2022-08-29T01:02:24.557Z,15.20
2022-08-29T01:05:13.207Z,14.65
2022-08-29T01:08:00.846Z,21.50
2022-08-29T01:11:04.757Z,14.25
2022-08-29T01:13:53.247Z,18.77
2022-08-29T01:16:39.528Z,19.38
2022-08-29T01:20:06.493Z,13.55
2022-08-29T01:23:14.551Z,24.45
2022-08-29T01:26:02.673Z,22.83
2022-08-29T01:28:52.481Z,14.43
2022-08-29T01:31:56.644Z,14.82
2022-08-29T01:34:43.882Z,11.82
2022-08-29T01:37:33.113Z,19.50
2022-08-29T01:40:19.241Z,15.52
2022-08-29T01:43:05.376Z,9.00
2022-08-29T01:45:51.685Z,15.65
2022-08-29T01:48:40.028Z,8.52
2022-08-29T01:51:25.907Z,13.68
2022-08-29T01:54:12.744Z,13.25
2022-08-29T01:56:58.687Z,16.00
2022-08-29T01:59:45.183Z,13.75
2022-08-29T02:02:31.510Z,12.15
2022-08-29T02:05:17.390Z,12.95
2022-08-29T02:08:03.596Z,8.25
2022-08-29T02:10:49.572Z,16.40
2022-08-29T02:13:45.495Z,12.52
2022-08-29T02:16:32.138Z,11.52
2022-08-29T02:19:18.552Z,14.52
2022-08-29T02:22:05.890Z,11.55
2022-08-29T02:24:52.156Z,12.52
2022-08-29T02:27:37.896Z,13.43
2022-08-29T02:30:23.732Z,14.23
2022-08-29T02:33:10.491Z,9.40
2022-08-29T02:35:56.664Z,9.38
2022-08-29T02:38:43.351Z,15.20
2022-08-29T02:41:29.140Z,11.52
2022-08-29T02:44:15.009Z,12.63
2022-08-29T02:47:01.029Z,17.98
2022-08-29T02:49:46.891Z,7.75
2022-08-29T02:52:37.287Z,15.38
2022-08-29T02:55:24.615Z,15.25
2022-08-29T02:58:10.390Z,9.82
2022-08-29T03:00:56.799Z,19.35
2022-08-29T03:03:42.856Z,12.45
2022-08-29T03:06:29.746Z,10.60
2022-08-29T03:09:15.359Z,13.38
2022-08-29T03:12:01.449Z,10.07
2022-08-29T03:14:47.288Z,15.88
2022-08-29T03:17:33.442Z,12.00
2022-08-29T03:20:20.764Z,9.52
2022-08-29T03:23:06.938Z,16.02
2022-08-29T03:25:55.238Z,8.13
2022-08-29T03:28:41.354Z,9.70
2022-08-29T03:31:27.160Z,10.70
2022-08-29T03:34:14.589Z,11.48
2022-08-29T03:37:00.603Z,10.80
2022-08-29T03:39:46.412Z,9.07
2022-08-29T03:42:32.286Z,10.10
2022-08-29T03:45:19.313Z,16.52
2022-08-29T03:48:06.298Z,12.73
2022-08-29T03:50:56.214Z,9.02
2022-08-29T03:53:43.193Z,9.73
2022-08-29T03:56:29.289Z,9.70
2022-08-29T03:59:16.337Z,12.80
2022-08-29T04:02:02.619Z,11.15
2022-08-29T04:05:08.273Z,14.25
2022-08-29T04:08:00.011Z,9.52
2022-08-29T04:10:46.205Z,10.43
2022-08-29T04:13:32.196Z,11.98
2022-08-29T04:16:24.649Z,15.70
2022-08-29T04:19:16.948Z,12.70
2022-08-29T04:22:04.467Z,16.50
2022-08-29T04:24:50.375Z,13.55
2022-08-29T04:27:39.019Z,16.10
2022-08-29T04:30:25.827Z,13.50
2022-08-29T04:33:16.222Z,13.00
2022-08-29T04:36:11.940Z,10.02
2022-08-29T04:39:00.000Z,16.40
2022-08-29T04:41:46.073Z,15.45
2022-08-29T04:44:32.525Z,13.98
2022-08-29T04:47:21.645Z,16.50
2022-08-29T04:50:10.212Z,16.63
2022-08-29T04:52:56.897Z,20.00
2022-08-29T04:55:42.589Z,13.07
2022-08-29T04:58:30.959Z,13.38
2022-08-29T05:01:19.849Z,12.50
2022-08-29T05:04:05.764Z,11.35
2022-08-29T05:06:51.768Z,10.30
2022-08-29T05:09:37.748Z,16.13
2022-08-29T05:12:23.789Z,10.35
2022-08-29T05:15:10.790Z,11.80
2022-08-29T05:17:57.323Z,9.55
2022-08-29T05:20:45.851Z,14.98
2022-08-29T05:23:32.224Z,13.15
2022-08-29T05:26:19.046Z,21.52
2022-08-29T05:29:08.626Z,11.13
2022-08-29T05:31:54.325Z,12.18
2022-08-29T05:34:40.719Z,13.55
2022-08-29T05:37:26.951Z,6.75
2022-08-29T05:40:12.969Z,9.10
2022-08-29T05:42:58.930Z,12.82
2022-08-29T05:45:44.664Z,13.82
2022-08-29T05:48:31.370Z,7.50
2022-08-29T05:51:18.948Z,8.40
2022-08-29T05:54:05.406Z,4.70
2022-08-29T05:56:51.812Z,5.25
2022-08-29T05:59:37.840Z,5.78
2022-08-29T06:02:25.204Z,11.75
2022-08-29T06:05:11.756Z,5.10
2022-08-29T06:07:57.544Z,4.10
2022-08-29T06:10:45.261Z,8.98
2022-08-29T06:13:31.475Z,3.83
2022-08-29T06:16:20.791Z,3.17
2022-08-29T06:19:06.681Z,5.97
2022-08-29T06:21:55.825Z,4.72
2022-08-29T06:24:44.476Z,2.78
2022-08-29T06:27:30.376Z,5.38
2022-08-29T06:30:16.306Z,2.15
2022-08-29T06:33:03.123Z,3.55
2022-08-29T06:35:49.369Z,2.97
2022-08-29T06:38:35.651Z,4.75
2022-08-29T06:41:21.373Z,2.97
2022-08-29T06:44:08.201Z,3.20
2022-08-29T06:46:54.255Z,1.45
2022-08-29T06:49:40.314Z,2.13
2022-08-29T06:52:27.824Z,5.28
2022-08-29T06:55:13.777Z,0.98
2022-08-29T06:58:01.070Z,1.33
2022-08-29T07:00:49.691Z,2.35
2022-08-29T07:03:36.168Z,2.55
2022-08-29T07:06:22.099Z,1.80
2022-08-29T07:09:08.128Z,4.50
2022-08-29T07:11:54.164Z,3.35
2022-08-29T07:14:39.852Z,2.50
2022-08-29T07:17:26.257Z,3.78
2022-08-29T07:20:12.476Z,3.47
2022-08-29T07:22:58.333Z,1.85
2022-08-29T07:25:44.117Z,2.83
2022-08-29T07:28:30.931Z,6.15
2022-08-29T07:31:20.061Z,1.10
2022-08-29T07:34:06.894Z,2.85
2022-08-29T07:36:52.878Z,2.53
2022-08-29T07:39:39.106Z,2.40
2022-08-29T07:42:25.054Z,1.17
2022-08-29T07:45:12.418Z,3.03
2022-08-29T07:47:58.808Z,4.50
2022-08-29T07:50:44.513Z,0.98
2022-08-29T07:53:30.587Z,2.47
2022-08-29T07:56:20.352Z,1.17
2022-08-29T07:59:07.156Z,1.45
2022-08-29T08:01:53.839Z,3.40
2022-08-29T08:04:39.592Z,1.88
2022-08-29T08:07:29.413Z,0.80
2022-08-29T08:10:17.760Z,4.60
2022-08-29T08:13:03.917Z,2.03
2022-08-29T08:15:49.949Z,1.80
2022-08-29T08:18:37.794Z,2.83
2022-08-29T08:21:25.217Z,1.50
2022-08-29T08:24:11.930Z,1.10
2022-08-29T08:26:59.813Z,2.65
2022-08-29T08:29:45.708Z,1.17
2022-08-29T08:32:32.350Z,1.15
2022-08-29T08:35:22.542Z,2.05
2022-08-29T08:38:11.402Z,0.73
2022-08-29T08:41:00.750Z,2.92
2022-08-29T08:43:54.086Z,2.47
2022-08-29T08:49:38.864Z,2.30
2022-08-29T08:52:31.809Z,3.13
2022-08-29T08:55:42.795Z,0.60
2022-08-29T08:58:55.782Z,1.30
2022-08-29T09:01:46.386Z,1.80
2022-08-29T09:04:43.444Z,2.33
2022-08-29T09:07:56.154Z,2.53
2022-08-29T09:10:58.056Z,0.98
2022-08-29T09:13:54.471Z,1.10
2022-08-29T09:16:48.677Z,2.00
2022-08-29T09:19:34.571Z,2.17
2022-08-29T09:22:26.730Z,0.57
2022-08-29T09:25:18.599Z,0.88
2022-08-29T09:28:09.452Z,1.48
2022-08-29T09:31:34.133Z,1.48
2022-08-29T09:34:56.987Z,0.60
2022-08-29T09:37:42.135Z,1.95
2022-08-29T09:40:47.720Z,1.25
2022-08-29T09:43:39.423Z,0.90
2022-08-29T09:46:26.053Z,2.63
2022-08-29T09:49:18.959Z,3.85
2022-08-29T09:52:15.097Z,0.90
2022-08-29T09:55:23.872Z,1.17
2022-08-29T09:58:29.283Z,0.88
2022-08-29T10:01:28.255Z,1.30
2022-08-29T10:04:36.510Z,1.73
2022-08-29T10:07:32.377Z,0.57
2022-08-29T10:10:26.140Z,1.00
2022-08-29T10:13:22.274Z,1.27
2022-08-29T10:16:27.309Z,2.28
2022-08-29T10:19:33.108Z,3.53
2022-08-29T10:22:35.861Z,0.60
2022-08-29T10:25:28.908Z,0.90
2022-08-29T10:31:46.516Z,1.73
2022-08-29T10:34:57.392Z,1.60
2022-08-29T10:37:49.157Z,4.30
2022-08-29T10:40:43.396Z,0.90
2022-08-29T10:43:47.893Z,3.88
2022-08-29T10:47:11.491Z,3.00
2022-08-29T10:50:16.890Z,1.35
2022-08-29T10:53:27.927Z,4.05
2022-08-29T10:56:24.912Z,1.48
2022-08-29T10:59:28.170Z,2.88
2022-08-29T11:02:25.833Z,2.30
2022-08-29T11:05:25.878Z,0.75
2022-08-29T11:08:28.392Z,2.30
2022-08-29T11:11:20.531Z,1.67
2022-08-29T11:14:13.065Z,1.98
2022-08-29T11:17:03.457Z,1.40
2022-08-29T11:20:09.590Z,0.98
2022-08-29T11:23:07.264Z,3.42
2022-08-29T11:25:53.119Z,1.63
2022-08-29T11:28:46.028Z,1.42
2022-08-29T11:31:44.081Z,0.70
2022-08-29T11:35:01.129Z,1.77
2022-08-29T11:37:56.228Z,1.10
2022-08-29T11:44:07.676Z,1.85
2022-08-29T11:46:56.412Z,1.27
2022-08-29T11:49:51.732Z,2.08
2022-08-29T11:52:48.607Z,0.70
2022-08-29T11:55:41.605Z,1.23
2022-08-29T11:58:27.088Z,3.10
2022-08-29T12:01:35.819Z,0.75
2022-08-29T12:04:52.838Z,5.05
2022-08-29T12:07:55.490Z,0.75
2022-08-29T12:10:55.891Z,1.08
2022-08-29T12:13:48.231Z,2.75
2022-08-29T12:16:50.458Z,0.90
2022-08-29T12:20:00.023Z,1.48
2022-08-29T12:23:25.615Z,1.40
2022-08-29T12:26:39.404Z,2.92
2022-08-29T12:29:44.408Z,0.63
2022-08-29T12:32:49.231Z,0.75
2022-08-29T12:35:41.254Z,1.65
2022-08-29T12:38:54.273Z,1.75
2022-08-29T12:41:56.816Z,1.55
2022-08-29T12:45:00.390Z,3.10
2022-08-29T12:48:00.627Z,0.90
2022-08-29T12:50:48.328Z,1.05
2022-08-29T12:53:35.261Z,2.97
2022-08-29T12:56:23.054Z,0.65
2022-08-29T12:59:20.011Z,1.83
2022-08-29T13:02:06.940Z,3.95
2022-08-29T13:04:53.279Z,0.68
2022-08-29T13:07:39.002Z,4.47
2022-08-29T13:10:25.417Z,1.65
2022-08-29T13:13:14.970Z,2.00
2022-08-29T13:16:03.186Z,1.73
2022-08-29T13:19:09.535Z,1.52
2022-08-29T13:22:04.184Z,2.97
2022-08-29T13:25:05.741Z,2.25
2022-08-29T13:28:01.116Z,2.72
2022-08-29T13:31:08.993Z,14.00
2022-08-29T13:33:54.751Z,1.33
2022-08-29T13:37:01.175Z,1.02
2022-08-29T13:39:47.789Z,1.75
2022-08-29T13:42:33.579Z,3.65
2022-08-29T13:45:24.268Z,0.60
2022-08-29T13:48:18.988Z,1.17
2022-08-29T13:51:06.771Z,2.80
2022-08-29T13:53:53.404Z,0.77
2022-08-29T13:56:39.059Z,2.90
2022-08-29T13:59:30.300Z,0.93
2022-08-29T14:02:20.340Z,0.77
2022-08-29T14:05:08.561Z,1.98
2022-08-29T14:07:54.664Z,0.43
2022-08-29T14:10:40.776Z,1.38
2022-08-29T14:13:28.077Z,1.67
2022-08-29T14:16:14.685Z,0.60
2022-08-29T14:19:00.508Z,0.40
2022-08-29T14:21:46.558Z,0.85
2022-08-29T14:24:33.915Z,1.70
2022-08-29T14:27:21.473Z,5.07
2022-08-29T14:30:10.550Z,1.77
2022-08-29T14:32:56.526Z,3.30
2022-08-29T14:35:43.403Z,6.43
2022-08-29T14:38:29.518Z,1.48
2022-08-29T14:41:15.884Z,2.33
2022-08-29T14:44:01.434Z,1.70
2022-08-29T14:46:47.511Z,2.28
2022-08-29T14:49:33.629Z,2.40
2022-08-29T14:52:19.590Z,1.65
2022-08-29T14:55:05.895Z,0.70
2022-08-29T14:57:52.082Z,2.60
2022-08-29T15:00:37.744Z,1.27
2022-08-29T15:03:25.435Z,1.58
2022-08-29T15:06:11.135Z,1.27
2022-08-29T15:08:57.584Z,6.60
2022-08-29T15:11:43.332Z,4.25
2022-08-29T15:14:29.287Z,2.00
2022-08-29T15:17:15.303Z,0.90
2022-08-29T15:20:34.997Z,2.70
2022-08-29T15:23:07.433Z,2.60
2022-08-29T15:25:53.589Z,1.60
2022-08-29T15:28:39.585Z,5.57
2022-08-29T15:31:25.439Z,2.70
2022-08-29T15:34:11.027Z,2.00
2022-08-29T15:36:58.683Z,2.42
2022-08-29T15:39:44.270Z,2.72
2022-08-29T15:42:30.512Z,2.50
2022-08-29T15:45:16.388Z,1.48
2022-08-29T15:48:03.363Z,4.53
2022-08-29T15:50:50.940Z,3.05
2022-08-29T15:53:36.748Z,1.23
2022-08-29T15:56:22.592Z,2.35
2022-08-29T15:59:12.868Z,0.82
2022-08-29T16:01:58.774Z,2.00
2022-08-29T16:04:47.627Z,1.55
2022-08-29T16:07:33.721Z,2.38
2022-08-29T16:10:19.616Z,1.63
2022-08-29T16:13:05.656Z,3.10
2022-08-29T16:15:51.787Z,5.80
2022-08-29T16:18:37.779Z,1.60
2022-08-29T16:21:26.852Z,2.63
2022-08-29T16:24:13.443Z,2.10
2022-08-29T16:26:59.946Z,4.68
2022-08-29T16:29:45.560Z,3.78
2022-08-29T16:32:31.512Z,2.47
2022-08-29T16:35:18.755Z,4.35
2022-08-29T16:38:04.364Z,2.60
2022-08-29T16:40:50.420Z,1.55
2022-08-29T16:43:38.662Z,1.75
2022-08-29T16:46:27.710Z,1.85
2022-08-29T16:49:17.465Z,3.80
2022-08-29T16:52:04.712Z,1.17
2022-08-29T16:54:52.111Z,1.80
2022-08-29T16:57:39.965Z,5.05
2022-08-29T17:00:25.510Z,2.47
2022-08-29T17:03:14.012Z,2.15
2022-08-29T17:06:03.404Z,4.00
2022-08-29T17:08:49.359Z,0.98
2022-08-29T17:11:36.785Z,4.45
2022-08-29T17:14:24.248Z,7.03
2022-08-29T17:17:10.023Z,3.35
2022-08-29T17:19:57.408Z,2.88
2022-08-29T17:22:43.437Z,3.47
2022-08-29T17:25:29.312Z,2.33
2022-08-29T17:28:18.101Z,3.28
2022-08-29T17:31:05.776Z,2.38
2022-08-29T17:33:52.240Z,2.50
2022-08-29T17:36:41.891Z,5.20
2022-08-29T17:39:27.778Z,1.73
2022-08-29T17:42:13.871Z,4.22
2022-08-29T17:45:00.239Z,4.57
2022-08-29T17:47:46.147Z,1.33
2022-08-29T17:50:33.694Z,3.25
2022-08-29T17:53:19.733Z,5.00
2022-08-29T17:56:18.299Z,13.02
2022-08-29T17:59:05.921Z,1.98
2022-08-29T18:01:52.865Z,3.67
2022-08-29T18:04:39.297Z,1.85
2022-08-29T18:07:24.903Z,2.92
2022-08-29T18:10:17.028Z,5.13
2022-08-29T18:13:02.904Z,3.40
2022-08-29T18:15:52.570Z,3.90
2022-08-29T18:18:38.873Z,2.80
2022-08-29T18:21:26.000Z,3.65
2022-08-29T18:24:14.977Z,4.30
2022-08-29T18:27:01.916Z,5.20
2022-08-29T18:29:48.043Z,2.53
2022-08-29T18:32:37.338Z,3.65
2022-08-29T18:35:23.351Z,5.95
2022-08-29T18:38:09.595Z,3.92
2022-08-29T18:40:55.758Z,4.82
2022-08-29T18:43:41.790Z,4.13
2022-08-29T18:46:28.956Z,2.70
2022-08-29T18:49:14.994Z,2.60
2022-08-29T18:52:00.905Z,3.25
2022-08-29T18:54:46.580Z,4.15
2022-08-29T18:57:33.362Z,4.65
2022-08-29T19:00:19.222Z,2.80
2022-08-29T19:03:05.837Z,5.75
2022-08-29T19:05:53.960Z,2.67
2022-08-29T19:08:40.035Z,2.58
2022-08-29T19:11:28.857Z,6.18
2022-08-29T19:14:14.820Z,2.72
2022-08-29T19:17:02.990Z,3.17
2022-08-29T19:20:10.268Z,1.85
2022-08-29T19:22:56.256Z,3.00
2022-08-29T19:25:43.562Z,2.92
2022-08-29T19:28:29.792Z,1.92
2022-08-29T19:31:18.335Z,3.45
2022-08-29T19:34:04.819Z,3.03
2022-08-29T19:36:50.642Z,1.40
2022-08-29T19:39:37.862Z,1.95
2022-08-29T19:42:24.029Z,2.00
2022-08-29T19:45:11.313Z,3.45
2022-08-29T19:47:58.584Z,2.28
2022-08-29T19:50:47.794Z,4.40
2022-08-29T19:53:33.482Z,1.83
2022-08-29T19:56:21.267Z,6.47
2022-08-29T19:59:07.141Z,3.85
2022-08-29T20:01:53.250Z,5.88
2022-08-29T20:04:38.910Z,4.82
2022-08-29T20:07:24.807Z,3.60
2022-08-29T20:10:13.412Z,4.15
2022-08-29T20:12:59.536Z,4.20
2022-08-29T20:15:45.405Z,5.97
2022-08-29T20:18:31.255Z,4.15
2022-08-29T20:21:19.232Z,4.50
2022-08-29T20:24:05.478Z,6.15
2022-08-29T20:26:51.213Z,3.65
2022-08-29T20:29:39.291Z,2.25
2022-08-29T20:32:25.087Z,0.47
2022-08-29T20:35:11.298Z,2.10
2022-08-29T20:37:56.886Z,1.98
2022-08-29T20:40:46.842Z,2.10
2022-08-29T20:43:32.758Z,1.60
2022-08-29T20:46:18.936Z,7.97
2022-08-29T20:49:04.619Z,1.88
2022-08-29T20:51:51.860Z,4.18
2022-08-29T20:54:39.239Z,1.45
2022-08-29T20:57:25.982Z,4.40
2022-08-29T21:00:12.746Z,4.47
2022-08-29T21:03:17.066Z,9.27
2022-08-29T21:06:03.922Z,3.78
2022-08-29T21:08:49.752Z,9.73
2022-08-29T21:11:35.776Z,3.42
2022-08-29T21:14:27.260Z,2.83
2022-08-29T21:17:13.694Z,5.15
2022-08-29T21:19:59.407Z,5.97
2022-08-29T21:22:45.328Z,10.00
2022-08-29T21:25:31.478Z,5.57
2022-08-29T21:28:17.346Z,4.57
2022-08-29T21:31:04.972Z,4.25
2022-08-29T21:33:51.338Z,8.70
2022-08-29T21:36:38.315Z,4.93
2022-08-29T21:39:28.395Z,3.53
2022-08-29T21:42:15.114Z,4.40
2022-08-29T21:45:01.065Z,3.08
2022-08-29T21:47:57.273Z,4.75
2022-08-29T21:50:43.549Z,3.95
2022-08-29T21:53:29.310Z,1.95
2022-08-29T21:56:17.934Z,5.18
2022-08-29T21:59:05.470Z,3.75
2022-08-29T22:01:52.724Z,1.65
2022-08-29T22:04:41.898Z,0.95
2022-08-29T22:07:27.738Z,1.42
2022-08-29T22:10:20.393Z,3.70
2022-08-29T22:13:07.948Z,1.35
2022-08-29T22:16:12.533Z,1.25
2022-08-29T22:19:19.500Z,2.80
2022-08-29T22:22:05.192Z,7.30
2022-08-29T22:24:51.141Z,2.42
2022-08-29T22:27:37.385Z,2.60
2022-08-29T22:30:23.238Z,2.05
2022-08-29T22:33:18.132Z,2.90
2022-08-29T22:36:04.375Z,4.47
2022-08-29T22:38:56.246Z,1.02
2022-08-29T22:41:46.798Z,2.88
2022-08-29T22:45:03.226Z,3.88
2022-08-29T22:47:40.315Z,1.83
2022-08-29T22:50:26.883Z,1.58
2022-08-29T22:53:13.312Z,4.28
2022-08-29T22:55:59.085Z,1.88
2022-08-29T22:58:44.920Z,1.50
2022-08-29T23:01:33.543Z,1.50
2022-08-29T23:04:19.628Z,2.63
2022-08-29T23:07:06.843Z,3.03
2022-08-29T23:09:52.463Z,1.42
2022-08-29T23:12:38.665Z,0.90
2022-08-29T23:15:24.453Z,1.45
2022-08-29T23:18:10.608Z,1.15
2022-08-29T23:20:56.523Z,1.00
2022-08-29T23:23:42.565Z,1.95
2022-08-29T23:26:28.719Z,0.80
2022-08-29T23:29:15.021Z,1.77
2022-08-29T23:32:01.398Z,1.45
2022-08-29T23:34:47.406Z,1.02
2022-08-29T23:37:33.634Z,0.75
2022-08-29T23:40:19.445Z,1.27
2022-08-29T23:43:05.290Z,1.67
2022-08-29T23:45:54.400Z,1.38
2022-08-29T23:48:40.405Z,1.08
2022-08-29T23:51:26.026Z,1.65
2022-08-29T23:54:12.247Z,0.88
2022-08-29T23:56:58.528Z,1.02
